Merry Christmas and Happy New Year!

 

Sretan Božić i Nova godina!

 

METAR

METAR LDZA 190430Z 00000KT CAVOK M06/M07 Q1024 NOSIG =
METAR LDSP 190430Z AUTO 36005KT 340V040 CAVOK 01/M05 Q1025 NOSIG=
METAR LDDU 190430Z 33007G18KT CAVOK 03/M07 Q1024 NOSIG =
METAR LDZD 190430Z 10004KT CAVOK M05/M05 Q1025 =
METAR LDPL 190430Z 05003KT 010V070 9999 FEW025 M00/M02 Q1024=
METAR LDOS 190430Z 21005KT CAVOK M02/M05 Q1024=
METAR  LDRI 190430Z 10006KT 9999 SCT037 02/00 Q1024=

TAF

TAF AMD LDZA 190101Z 1901/2000 VRB02KT CAVOK
                     TX06/1913Z TNM05/1905Z
        PROB30 TEMPO 1902/1907 3000 BR
               BECMG 1909/1911 24008KT=
TAF LDSP 182325Z 1900/2000 34008KT CAVOK
                 TX08/1913Z TNM01/1905Z=
TAF LDDU 182325Z 1900/2000 02012KT CAVOK
                 TX08/1912Z TN00/1905Z
    PROB40 TEMPO 1900/1906 VRB18G28KT
           BECMG 1908/1910 30008KT
           BECMG 1916/1918 02010KT=
TAF LDZD 182325Z 1900/2000 VRB02KT CAVOK
                 TX09/1913Z TNM04/1905Z
    PROB30 TEMPO 1900/1907 1500 BCFG
           TEMPO 1912/2000 18008KT=
TAF LDPL 182325Z 1900/2000 VRB02KT CAVOK
                 TX08/1913Z TNM03/1905Z
    PROB30 TEMPO 1900/1905 3000 BR
    PROB30 TEMPO 1904/1910 BKN010
           TEMPO 1912/2000 25008KT=
TAF LDOS 182325Z 1900/2000 22006KT 9999 SCT040
                 TX04/1912Z TNM05/1906Z
           BECMG 1916/1918 24010KT=
TAF LDRI 182325Z 1900/2000 VRB02KT CAVOK
                 TX08/1913Z TNM02/1905Z=

SIGMET

AIRMET

If you cannot log in with your user account, please contact stjepko.jancijev@crocontrol.hr.
Specifically, the website deactivates user accounts that have not been used for more than 365 days, so they must be reactivated.
 

         

      Politika MET podataka      

 

Ukoliko se svojim korisničkim računom ne možete logirati na web stranicu, molim vas da se obratite na stjepko.jancijev@crocontrol.hr.

Naime, web stranica deaktivira korisničke račune koji nisu korišteni više od 365 dana te ih je potrebno ponovno aktivirati.